createdAt,value
2023-06-03T00:04:25.284Z,4.59
2023-06-03T00:09:48.821Z,4.55
2023-06-03T00:15:12.614Z,4.38
2023-06-03T00:20:38.226Z,4.30
2023-06-03T00:26:00.710Z,4.13
2023-06-03T00:31:24.617Z,4.08
2023-06-03T00:36:47.715Z,3.94
2023-06-03T00:42:11.678Z,3.94
2023-06-03T00:47:37.955Z,4.05
2023-06-03T00:53:02.759Z,4.01
2023-06-03T00:58:25.582Z,4.17
2023-06-03T01:03:49.015Z,4.21
2023-06-03T01:09:33.096Z,4.09
2023-06-03T01:15:11.417Z,4.11
2023-06-03T01:20:36.029Z,4.00
2023-06-03T01:25:58.944Z,4.03
2023-06-03T01:31:25.578Z,3.90
2023-06-03T01:36:50.786Z,3.84
2023-06-03T01:42:17.041Z,3.92
2023-06-03T01:47:42.413Z,3.87
2023-06-03T01:53:07.092Z,3.64
2023-06-03T01:58:32.087Z,3.57
2023-06-03T02:03:54.457Z,3.50
2023-06-03T02:09:18.428Z,3.54
2023-06-03T02:14:43.928Z,3.59
2023-06-03T02:20:10.071Z,3.59
2023-06-03T02:25:34.875Z,3.56
2023-06-03T02:30:59.577Z,3.58
2023-06-03T02:36:25.226Z,3.51
2023-06-03T02:41:49.959Z,3.44
2023-06-03T02:47:14.770Z,3.28
2023-06-03T02:52:39.665Z,3.12
2023-06-03T02:58:03.791Z,3.10
2023-06-03T03:03:28.541Z,2.96
2023-06-03T03:08:55.679Z,2.81
2023-06-03T03:14:19.662Z,2.72
2023-06-03T03:19:43.165Z,2.88
2023-06-03T03:25:06.241Z,3.22
2023-06-03T03:30:30.326Z,3.41
2023-06-03T03:35:57.500Z,3.58
2023-06-03T03:41:24.067Z,3.69
2023-06-03T03:47:03.515Z,3.85
2023-06-03T03:52:31.605Z,4.08
2023-06-03T03:57:57.138Z,4.23
2023-06-03T04:03:21.911Z,4.31
2023-06-03T04:09:06.762Z,4.47
2023-06-03T04:14:36.478Z,4.68
2023-06-03T04:20:00.513Z,4.87
2023-06-03T04:25:27.345Z,5.08
2023-06-03T04:30:51.529Z,5.36
2023-06-03T04:36:15.547Z,5.60
2023-06-03T04:41:40.248Z,5.87
2023-06-03T04:47:05.984Z,6.15
2023-06-03T04:52:33.063Z,6.37
2023-06-03T04:57:58.313Z,6.68
2023-06-03T05:03:24.203Z,6.95
2023-06-03T05:08:49.375Z,7.23
2023-06-03T05:14:14.206Z,7.44
2023-06-03T05:19:39.233Z,7.70
2023-06-03T05:25:06.462Z,7.98
2023-06-03T05:30:30.096Z,8.14
2023-06-03T05:35:54.902Z,8.27
2023-06-03T05:41:18.700Z,8.43
2023-06-03T05:46:42.601Z,8.62
2023-06-03T05:52:07.387Z,8.75
2023-06-03T05:57:32.685Z,8.92
2023-06-03T06:02:55.182Z,9.14
2023-06-03T06:08:19.734Z,9.32
2023-06-03T06:13:43.911Z,9.40
2023-06-03T06:19:08.086Z,9.65
2023-06-03T06:24:34.776Z,9.75
2023-06-03T06:30:01.562Z,9.87
2023-06-03T06:35:26.159Z,10.07
2023-06-03T06:40:52.965Z,10.12
2023-06-03T06:46:16.330Z,10.26
2023-06-03T06:51:42.380Z,10.56
2023-06-03T06:57:07.469Z,10.73
2023-06-03T07:02:32.253Z,10.83
2023-06-03T07:07:56.883Z,10.98
2023-06-03T07:13:22.378Z,11.16
2023-06-03T07:18:47.850Z,11.31
2023-06-03T07:24:12.348Z,11.26
2023-06-03T07:29:37.581Z,11.26
2023-06-03T07:35:00.470Z,11.79
2023-06-03T07:40:28.234Z,11.80
2023-06-03T07:45:51.124Z,11.79
2023-06-03T07:51:13.544Z,11.75
2023-06-03T07:56:39.650Z,11.98
2023-06-03T08:02:04.222Z,12.13
2023-06-03T08:07:28.670Z,12.11
2023-06-03T08:12:54.227Z,12.32
2023-06-03T08:18:18.171Z,12.08
2023-06-03T08:23:40.615Z,12.01
2023-06-03T08:29:03.570Z,12.57
2023-06-03T08:34:26.572Z,12.69
2023-06-03T08:39:49.789Z,12.80
2023-06-03T08:45:18.470Z,13.37
2023-06-03T08:50:43.447Z,13.23
2023-06-03T08:56:07.982Z,13.57
2023-06-03T09:01:39.218Z,13.27
2023-06-03T09:07:04.859Z,13.64
2023-06-03T09:12:28.691Z,13.95
2023-06-03T09:17:52.757Z,14.04
2023-06-03T09:23:16.240Z,14.03
2023-06-03T09:28:38.610Z,14.52
2023-06-03T09:34:01.696Z,14.46
2023-06-03T09:39:26.055Z,14.42
2023-06-03T09:45:08.073Z,15.24
2023-06-03T09:50:31.282Z,15.97
2023-06-03T09:55:53.588Z,15.68
2023-06-03T10:01:16.051Z,16.15
2023-06-03T10:06:40.304Z,15.84
2023-06-03T10:12:08.645Z,16.69
2023-06-03T10:17:32.953Z,16.40
2023-06-03T10:22:57.780Z,17.08
2023-06-03T10:28:21.054Z,17.85
2023-06-03T10:33:47.081Z,18.21
2023-06-03T10:39:13.004Z,17.90
2023-06-03T10:44:35.863Z,18.85
2023-06-03T10:50:09.137Z,17.70
2023-06-03T10:55:54.269Z,18.43
2023-06-03T11:01:20.973Z,18.95
2023-06-03T11:06:47.090Z,18.20
2023-06-03T11:12:21.434Z,19.23
2023-06-03T11:17:45.089Z,18.71
2023-06-03T11:23:07.882Z,18.96
2023-06-03T11:28:41.813Z,18.38
2023-06-03T11:34:33.557Z,19.13
2023-06-03T11:40:22.246Z,19.58
2023-06-03T11:45:45.666Z,19.56
2023-06-03T11:51:10.060Z,20.15
2023-06-03T11:56:33.057Z,20.11
2023-06-03T12:02:09.771Z,20.55
2023-06-03T12:07:34.381Z,20.69
2023-06-03T12:13:11.227Z,20.47
2023-06-03T12:18:33.689Z,20.04
2023-06-03T12:23:58.038Z,21.03
2023-06-03T12:29:26.203Z,20.42
2023-06-03T12:34:56.104Z,21.43
2023-06-03T12:40:20.211Z,21.79
2023-06-03T12:45:43.930Z,20.42
2023-06-03T12:51:06.627Z,19.31
2023-06-03T12:56:30.917Z,21.07
2023-06-03T13:01:53.457Z,20.95
2023-06-03T13:07:15.889Z,20.38
2023-06-03T13:12:41.762Z,21.46
2023-06-03T13:18:04.442Z,21.81
2023-06-03T13:23:27.672Z,22.11
2023-06-03T13:28:50.130Z,22.02
2023-06-03T13:34:12.687Z,20.62
2023-06-03T13:39:35.433Z,20.68
2023-06-03T13:44:58.680Z,21.70
2023-06-03T13:50:22.400Z,21.24
2023-06-03T13:55:44.690Z,21.77
2023-06-03T14:01:07.375Z,22.67
2023-06-03T14:06:31.007Z,22.98
2023-06-03T14:11:53.662Z,22.57
2023-06-03T14:17:16.354Z,22.82
2023-06-03T14:22:39.501Z,22.32
2023-06-03T14:28:03.595Z,22.08
2023-06-03T14:33:27.842Z,23.32
2023-06-03T14:38:50.898Z,22.74
2023-06-03T14:44:14.943Z,22.53
2023-06-03T14:49:38.270Z,22.36
2023-06-03T14:55:01.993Z,22.84
2023-06-03T15:00:25.865Z,23.11
2023-06-03T15:05:48.471Z,22.91
2023-06-03T15:11:11.642Z,23.82
2023-06-03T15:16:34.509Z,23.77
2023-06-03T15:21:57.536Z,25.20
2023-06-03T15:27:20.767Z,22.99
2023-06-03T15:32:43.943Z,23.94
2023-06-03T15:38:06.734Z,24.57
2023-06-03T15:43:29.633Z,24.21
2023-06-03T15:48:52.531Z,24.88
2023-06-03T15:54:14.968Z,24.76
2023-06-03T15:59:37.578Z,25.12
2023-06-03T16:05:00.961Z,24.15
2023-06-03T16:10:23.637Z,24.30
2023-06-03T16:15:46.343Z,24.45
2023-06-03T16:21:09.742Z,22.92
2023-06-03T16:26:33.582Z,22.44
2023-06-03T16:31:56.463Z,22.20
2023-06-03T16:37:19.177Z,22.28
2023-06-03T16:42:41.969Z,23.08
2023-06-03T16:48:04.528Z,22.36
2023-06-03T16:53:26.980Z,22.97
2023-06-03T16:58:50.815Z,22.76
2023-06-03T17:04:13.627Z,23.39
2023-06-03T17:09:36.636Z,22.43
2023-06-03T17:14:59.725Z,23.23
2023-06-03T17:20:22.405Z,22.87
2023-06-03T17:25:45.680Z,22.46
2023-06-03T17:31:08.762Z,22.28
2023-06-03T17:36:32.339Z,21.43
2023-06-03T17:41:55.596Z,21.20
2023-06-03T17:47:18.202Z,21.47
2023-06-03T17:52:40.671Z,20.98
2023-06-03T17:58:04.472Z,20.35
2023-06-03T18:03:26.994Z,20.18
2023-06-03T18:08:49.438Z,19.75
2023-06-03T18:14:11.836Z,19.42
2023-06-03T18:19:35.293Z,18.53
2023-06-03T18:24:57.972Z,17.51
2023-06-03T18:30:21.745Z,16.78
2023-06-03T18:35:44.646Z,15.82
2023-06-03T18:41:07.694Z,15.19
2023-06-03T18:46:30.886Z,14.65
2023-06-03T18:51:55.257Z,14.20
2023-06-03T18:57:17.894Z,13.72
2023-06-03T19:02:40.459Z,13.31
2023-06-03T19:08:03.298Z,13.05
2023-06-03T19:13:26.204Z,12.69
2023-06-03T19:18:49.487Z,12.41
2023-06-03T19:24:12.866Z,12.12
2023-06-03T19:29:35.726Z,11.84
2023-06-03T19:34:59.790Z,11.58
2023-06-03T19:40:22.596Z,11.39
2023-06-03T19:45:45.271Z,11.29
2023-06-03T19:51:08.097Z,11.13
2023-06-03T19:56:30.699Z,11.16
2023-06-03T20:01:54.858Z,11.02
2023-06-03T20:07:17.377Z,10.93
2023-06-03T20:12:39.723Z,10.64
2023-06-03T20:18:02.908Z,10.58
2023-06-03T20:23:25.264Z,10.57
2023-06-03T20:28:48.933Z,10.45
2023-06-03T20:34:11.290Z,10.30
2023-06-03T20:45:06.252Z,10.44
2023-06-03T20:50:29.200Z,10.23
2023-06-03T20:55:52.839Z,10.23
2023-06-03T21:01:15.238Z,10.19
2023-06-03T21:06:38.074Z,10.25
2023-06-03T21:12:01.808Z,10.21
2023-06-03T21:17:25.305Z,10.08
2023-06-03T21:22:48.237Z,9.96
2023-06-03T21:28:10.684Z,9.83
2023-06-03T21:33:33.617Z,9.66
2023-06-03T21:38:56.086Z,9.64
2023-06-03T21:44:19.109Z,9.72
2023-06-03T21:49:42.188Z,9.52
2023-06-03T21:55:04.585Z,9.36
2023-06-03T22:00:27.198Z,9.21
2023-06-03T22:05:50.611Z,9.13
2023-06-03T22:11:12.893Z,9.04
2023-06-03T22:16:35.377Z,8.88
2023-06-03T22:21:58.215Z,8.76
2023-06-03T22:27:20.563Z,8.66
2023-06-03T22:32:42.953Z,8.57
2023-06-03T22:38:05.333Z,8.41
2023-06-03T22:43:28.194Z,8.31
2023-06-03T22:48:50.540Z,8.25
2023-06-03T22:54:12.872Z,8.28
2023-06-03T22:59:35.130Z,8.41
2023-06-03T23:04:57.502Z,8.25
2023-06-03T23:10:20.542Z,8.10
2023-06-03T23:15:44.344Z,8.13
2023-06-03T23:21:07.438Z,8.09
2023-06-03T23:26:30.140Z,8.06
2023-06-03T23:31:52.787Z,8.06
2023-06-03T23:37:15.360Z,8.04
2023-06-03T23:42:38.012Z,8.03
2023-06-03T23:48:01.239Z,7.99
2023-06-03T23:53:23.831Z,7.88
2023-06-03T23:58:46.211Z,7.79
